sensor_id;sensor_type;location;lat;lon;timestamp;P1;durP1;ratioP1;P2;durP2;ratioP2
20611;SDS011;10465;42.686;23.364;2023-02-07T00:01:52;8.30;;;5.18;;
20611;SDS011;10465;42.686;23.364;2023-02-07T00:04:17;9.73;;;5.38;;
20611;SDS011;10465;42.686;23.364;2023-02-07T00:06:43;7.85;;;4.78;;
20611;SDS011;10465;42.686;23.364;2023-02-07T00:09:10;7.53;;;4.95;;
20611;SDS011;10465;42.686;23.364;2023-02-07T00:11:37;8.10;;;5.20;;
20611;SDS011;10465;42.686;23.364;2023-02-07T00:14:04;7.20;;;4.80;;
20611;SDS011;10465;42.686;23.364;2023-02-07T00:16:31;9.13;;;5.65;;
20611;SDS011;10465;42.686;23.364;2023-02-07T00:18:57;8.95;;;5.25;;
20611;SDS011;10465;42.686;23.364;2023-02-07T00:21:23;8.68;;;5.28;;
20611;SDS011;10465;42.686;23.364;2023-02-07T00:23:50;8.23;;;5.20;;
20611;SDS011;10465;42.686;23.364;2023-02-07T00:26:17;8.35;;;4.95;;
20611;SDS011;10465;42.686;23.364;2023-02-07T00:28:45;8.68;;;5.10;;
20611;SDS011;10465;42.686;23.364;2023-02-07T00:31:12;8.52;;;4.82;;
20611;SDS011;10465;42.686;23.364;2023-02-07T00:33:41;8.57;;;4.78;;
20611;SDS011;10465;42.686;23.364;2023-02-07T00:36:08;7.97;;;4.78;;
20611;SDS011;10465;42.686;23.364;2023-02-07T00:38:35;8.32;;;5.03;;
20611;SDS011;10465;42.686;23.364;2023-02-07T00:41:01;8.27;;;4.65;;
20611;SDS011;10465;42.686;23.364;2023-02-07T00:43:28;7.43;;;4.68;;
20611;SDS011;10465;42.686;23.364;2023-02-07T00:45:54;8.02;;;5.13;;
20611;SDS011;10465;42.686;23.364;2023-02-07T00:48:21;7.25;;;4.70;;
20611;SDS011;10465;42.686;23.364;2023-02-07T00:50:46;7.70;;;5.30;;
20611;SDS011;10465;42.686;23.364;2023-02-07T00:53:11;8.10;;;4.85;;
20611;SDS011;10465;42.686;23.364;2023-02-07T00:55:37;8.20;;;5.28;;
20611;SDS011;10465;42.686;23.364;2023-02-07T00:58:02;8.60;;;4.88;;
20611;SDS011;10465;42.686;23.364;2023-02-07T01:00:28;8.73;;;5.55;;
20611;SDS011;10465;42.686;23.364;2023-02-07T01:02:53;7.13;;;4.60;;
20611;SDS011;10465;42.686;23.364;2023-02-07T01:05:19;7.70;;;4.72;;
20611;SDS011;10465;42.686;23.364;2023-02-07T01:07:44;8.57;;;5.50;;
20611;SDS011;10465;42.686;23.364;2023-02-07T01:10:10;9.68;;;4.80;;
20611;SDS011;10465;42.686;23.364;2023-02-07T01:12:35;9.02;;;5.55;;
20611;SDS011;10465;42.686;23.364;2023-02-07T01:15:01;9.05;;;5.80;;
20611;SDS011;10465;42.686;23.364;2023-02-07T01:17:27;9.75;;;5.90;;
20611;SDS011;10465;42.686;23.364;2023-02-07T01:19:58;10.15;;;6.10;;
20611;SDS011;10465;42.686;23.364;2023-02-07T01:22:25;10.52;;;5.47;;
20611;SDS011;10465;42.686;23.364;2023-02-07T01:24:54;10.10;;;5.68;;
20611;SDS011;10465;42.686;23.364;2023-02-07T01:27:21;7.90;;;5.80;;
20611;SDS011;10465;42.686;23.364;2023-02-07T01:29:47;12.35;;;6.15;;
20611;SDS011;10465;42.686;23.364;2023-02-07T01:32:12;11.25;;;5.43;;
20611;SDS011;10465;42.686;23.364;2023-02-07T01:34:38;12.30;;;6.85;;
20611;SDS011;10465;42.686;23.364;2023-02-07T01:37:03;9.73;;;5.90;;
20611;SDS011;10465;42.686;23.364;2023-02-07T01:39:29;11.60;;;6.35;;
20611;SDS011;10465;42.686;23.364;2023-02-07T01:41:55;11.10;;;6.38;;
20611;SDS011;10465;42.686;23.364;2023-02-07T01:46:46;9.00;;;5.25;;
20611;SDS011;10465;42.686;23.364;2023-02-07T01:49:12;7.93;;;4.80;;
20611;SDS011;10465;42.686;23.364;2023-02-07T01:51:42;8.85;;;4.90;;
20611;SDS011;10465;42.686;23.364;2023-02-07T01:54:11;8.75;;;5.13;;
20611;SDS011;10465;42.686;23.364;2023-02-07T01:56:41;11.55;;;5.68;;
20611;SDS011;10465;42.686;23.364;2023-02-07T01:59:09;9.27;;;5.63;;
20611;SDS011;10465;42.686;23.364;2023-02-07T02:01:35;11.38;;;5.55;;
20611;SDS011;10465;42.686;23.364;2023-02-07T02:04:01;11.57;;;6.18;;
20611;SDS011;10465;42.686;23.364;2023-02-07T02:06:27;10.82;;;6.47;;
20611;SDS011;10465;42.686;23.364;2023-02-07T02:08:57;12.43;;;6.78;;
20611;SDS011;10465;42.686;23.364;2023-02-07T02:11:35;12.55;;;6.95;;
20611;SDS011;10465;42.686;23.364;2023-02-07T02:14:17;10.77;;;5.57;;
20611;SDS011;10465;42.686;23.364;2023-02-07T02:39:21;11.23;;;5.90;;
20611;SDS011;10465;42.686;23.364;2023-02-07T02:44:51;10.15;;;6.10;;
20611;SDS011;10465;42.686;23.364;2023-02-07T02:47:21;10.70;;;5.72;;
20611;SDS011;10465;42.686;23.364;2023-02-07T02:49:47;9.82;;;5.65;;
20611;SDS011;10465;42.686;23.364;2023-02-07T02:52:13;10.93;;;5.57;;
20611;SDS011;10465;42.686;23.364;2023-02-07T02:54:39;10.40;;;6.10;;
20611;SDS011;10465;42.686;23.364;2023-02-07T03:05:21;12.88;;;6.35;;
20611;SDS011;10465;42.686;23.364;2023-02-07T03:19:07;8.95;;;5.10;;
20611;SDS011;10465;42.686;23.364;2023-02-07T03:21:38;7.80;;;5.35;;
20611;SDS011;10465;42.686;23.364;2023-02-07T03:24:06;9.35;;;5.78;;
20611;SDS011;10465;42.686;23.364;2023-02-07T03:26:37;9.20;;;5.25;;
20611;SDS011;10465;42.686;23.364;2023-02-07T03:29:04;9.75;;;5.10;;
20611;SDS011;10465;42.686;23.364;2023-02-07T03:31:31;8.88;;;5.30;;
20611;SDS011;10465;42.686;23.364;2023-02-07T03:34:05;9.73;;;5.32;;
20611;SDS011;10465;42.686;23.364;2023-02-07T03:36:43;9.40;;;5.80;;
20611;SDS011;10465;42.686;23.364;2023-02-07T03:39:15;11.57;;;5.72;;
20611;SDS011;10465;42.686;23.364;2023-02-07T03:41:43;9.35;;;5.68;;
20611;SDS011;10465;42.686;23.364;2023-02-07T03:44:13;9.02;;;5.13;;
20611;SDS011;10465;42.686;23.364;2023-02-07T03:46:40;11.32;;;5.57;;
20611;SDS011;10465;42.686;23.364;2023-02-07T03:49:06;9.85;;;5.63;;
20611;SDS011;10465;42.686;23.364;2023-02-07T03:51:32;8.20;;;5.45;;
20611;SDS011;10465;42.686;23.364;2023-02-07T03:53:58;9.30;;;5.10;;
20611;SDS011;10465;42.686;23.364;2023-02-07T03:56:24;9.10;;;5.45;;
20611;SDS011;10465;42.686;23.364;2023-02-07T03:58:49;12.65;;;6.05;;
20611;SDS011;10465;42.686;23.364;2023-02-07T04:01:15;13.48;;;6.18;;
20611;SDS011;10465;42.686;23.364;2023-02-07T04:03:40;9.15;;;5.53;;
20611;SDS011;10465;42.686;23.364;2023-02-07T04:06:06;8.60;;;5.50;;
20611;SDS011;10465;42.686;23.364;2023-02-07T04:08:31;9.68;;;5.80;;
20611;SDS011;10465;42.686;23.364;2023-02-07T04:11:00;9.68;;;5.82;;
20611;SDS011;10465;42.686;23.364;2023-02-07T04:13:27;8.85;;;5.32;;
20611;SDS011;10465;42.686;23.364;2023-02-07T04:15:52;9.38;;;5.47;;
20611;SDS011;10465;42.686;23.364;2023-02-07T04:18:18;8.65;;;4.72;;
20611;SDS011;10465;42.686;23.364;2023-02-07T04:20:44;9.32;;;5.40;;
20611;SDS011;10465;42.686;23.364;2023-02-07T04:23:09;9.35;;;5.50;;
20611;SDS011;10465;42.686;23.364;2023-02-07T04:25:34;8.55;;;5.60;;
20611;SDS011;10465;42.686;23.364;2023-02-07T04:28:00;8.68;;;5.20;;
20611;SDS011;10465;42.686;23.364;2023-02-07T04:30:25;10.43;;;5.80;;
20611;SDS011;10465;42.686;23.364;2023-02-07T04:32:51;9.20;;;5.60;;
20611;SDS011;10465;42.686;23.364;2023-02-07T04:35:17;10.98;;;6.00;;
20611;SDS011;10465;42.686;23.364;2023-02-07T04:37:42;8.02;;;5.43;;
20611;SDS011;10465;42.686;23.364;2023-02-07T04:40:08;9.50;;;5.57;;
20611;SDS011;10465;42.686;23.364;2023-02-07T04:42:34;13.38;;;6.07;;
20611;SDS011;10465;42.686;23.364;2023-02-07T04:44:59;10.05;;;6.25;;
20611;SDS011;10465;42.686;23.364;2023-02-07T04:47:25;10.60;;;6.30;;
20611;SDS011;10465;42.686;23.364;2023-02-07T04:49:50;8.20;;;5.90;;
20611;SDS011;10465;42.686;23.364;2023-02-07T04:52:16;10.50;;;6.15;;
20611;SDS011;10465;42.686;23.364;2023-02-07T04:54:41;11.68;;;5.50;;
20611;SDS011;10465;42.686;23.364;2023-02-07T04:57:07;12.07;;;6.97;;
20611;SDS011;10465;42.686;23.364;2023-02-07T04:59:32;10.15;;;6.18;;
20611;SDS011;10465;42.686;23.364;2023-02-07T05:01:58;15.27;;;8.30;;
20611;SDS011;10465;42.686;23.364;2023-02-07T05:04:24;13.93;;;8.10;;
20611;SDS011;10465;42.686;23.364;2023-02-07T05:06:49;15.60;;;8.00;;
20611;SDS011;10465;42.686;23.364;2023-02-07T05:09:14;10.40;;;6.50;;
20611;SDS011;10465;42.686;23.364;2023-02-07T05:11:40;11.70;;;6.63;;
20611;SDS011;10465;42.686;23.364;2023-02-07T05:14:05;12.77;;;6.95;;
20611;SDS011;10465;42.686;23.364;2023-02-07T05:16:31;14.02;;;7.50;;
20611;SDS011;10465;42.686;23.364;2023-02-07T05:18:56;13.23;;;7.80;;
20611;SDS011;10465;42.686;23.364;2023-02-07T05:21:22;10.70;;;7.07;;
20611;SDS011;10465;42.686;23.364;2023-02-07T05:23:47;11.70;;;8.02;;
20611;SDS011;10465;42.686;23.364;2023-02-07T05:26:13;12.90;;;7.72;;
20611;SDS011;10465;42.686;23.364;2023-02-07T05:28:39;12.80;;;7.13;;
20611;SDS011;10465;42.686;23.364;2023-02-07T05:31:04;12.43;;;7.75;;
20611;SDS011;10465;42.686;23.364;2023-02-07T05:33:29;12.20;;;7.95;;
20611;SDS011;10465;42.686;23.364;2023-02-07T05:35:55;14.65;;;8.60;;
20611;SDS011;10465;42.686;23.364;2023-02-07T05:38:21;12.88;;;9.07;;
20611;SDS011;10465;42.686;23.364;2023-02-07T05:40:46;15.93;;;8.48;;
20611;SDS011;10465;42.686;23.364;2023-02-07T05:43:12;12.25;;;7.40;;
20611;SDS011;10465;42.686;23.364;2023-02-07T05:45:38;10.25;;;6.65;;
20611;SDS011;10465;42.686;23.364;2023-02-07T05:48:04;12.30;;;7.20;;
20611;SDS011;10465;42.686;23.364;2023-02-07T05:50:30;14.57;;;7.15;;
20611;SDS011;10465;42.686;23.364;2023-02-07T05:52:55;13.95;;;8.15;;
20611;SDS011;10465;42.686;23.364;2023-02-07T05:55:21;15.75;;;7.75;;
20611;SDS011;10465;42.686;23.364;2023-02-07T05:57:46;14.25;;;8.05;;
20611;SDS011;10465;42.686;23.364;2023-02-07T06:00:13;14.35;;;7.53;;
20611;SDS011;10465;42.686;23.364;2023-02-07T06:02:40;15.40;;;8.68;;
20611;SDS011;10465;42.686;23.364;2023-02-07T06:05:07;16.15;;;9.02;;
20611;SDS011;10465;42.686;23.364;2023-02-07T06:07:37;19.23;;;10.68;;
20611;SDS011;10465;42.686;23.364;2023-02-07T06:10:03;20.38;;;10.30;;
20611;SDS011;10465;42.686;23.364;2023-02-07T06:12:29;18.73;;;10.18;;
20611;SDS011;10465;42.686;23.364;2023-02-07T06:14:55;17.38;;;9.88;;
20611;SDS011;10465;42.686;23.364;2023-02-07T06:17:20;18.15;;;10.32;;
20611;SDS011;10465;42.686;23.364;2023-02-07T06:19:46;18.60;;;9.95;;
20611;SDS011;10465;42.686;23.364;2023-02-07T06:22:12;16.85;;;9.35;;
20611;SDS011;10465;42.686;23.364;2023-02-07T06:24:38;18.15;;;10.07;;
20611;SDS011;10465;42.686;23.364;2023-02-07T06:27:04;19.42;;;11.30;;
20611;SDS011;10465;42.686;23.364;2023-02-07T06:29:29;18.23;;;10.32;;
20611;SDS011;10465;42.686;23.364;2023-02-07T06:31:55;17.83;;;10.25;;
20611;SDS011;10465;42.686;23.364;2023-02-07T06:34:20;19.20;;;10.55;;
20611;SDS011;10465;42.686;23.364;2023-02-07T06:36:46;21.42;;;11.52;;
20611;SDS011;10465;42.686;23.364;2023-02-07T06:39:11;19.08;;;11.32;;
20611;SDS011;10465;42.686;23.364;2023-02-07T06:41:37;19.25;;;11.93;;
20611;SDS011;10465;42.686;23.364;2023-02-07T06:44:02;23.27;;;12.43;;
20611;SDS011;10465;42.686;23.364;2023-02-07T06:46:28;22.40;;;12.75;;
20611;SDS011;10465;42.686;23.364;2023-02-07T06:48:54;20.85;;;12.63;;
20611;SDS011;10465;42.686;23.364;2023-02-07T06:51:19;21.92;;;12.07;;
20611;SDS011;10465;42.686;23.364;2023-02-07T06:53:45;19.98;;;11.88;;
20611;SDS011;10465;42.686;23.364;2023-02-07T06:56:10;19.65;;;11.13;;
20611;SDS011;10465;42.686;23.364;2023-02-07T06:58:36;21.33;;;11.85;;
20611;SDS011;10465;42.686;23.364;2023-02-07T07:01:01;19.25;;;11.45;;
20611;SDS011;10465;42.686;23.364;2023-02-07T07:03:28;20.48;;;11.18;;
20611;SDS011;10465;42.686;23.364;2023-02-07T07:05:54;19.73;;;11.85;;
20611;SDS011;10465;42.686;23.364;2023-02-07T07:08:20;24.73;;;12.20;;
20611;SDS011;10465;42.686;23.364;2023-02-07T07:10:46;20.63;;;11.65;;
20611;SDS011;10465;42.686;23.364;2023-02-07T07:13:11;22.40;;;11.95;;
20611;SDS011;10465;42.686;23.364;2023-02-07T07:15:37;18.25;;;11.77;;
20611;SDS011;10465;42.686;23.364;2023-02-07T07:18:02;21.65;;;11.38;;
20611;SDS011;10465;42.686;23.364;2023-02-07T07:20:28;19.55;;;11.15;;
20611;SDS011;10465;42.686;23.364;2023-02-07T07:22:53;21.52;;;12.60;;
20611;SDS011;10465;42.686;23.364;2023-02-07T07:25:19;21.70;;;12.43;;
20611;SDS011;10465;42.686;23.364;2023-02-07T07:27:44;22.10;;;12.15;;
20611;SDS011;10465;42.686;23.364;2023-02-07T07:30:10;19.15;;;11.73;;
20611;SDS011;10465;42.686;23.364;2023-02-07T07:32:36;18.55;;;11.50;;
20611;SDS011;10465;42.686;23.364;2023-02-07T07:35:02;21.20;;;12.95;;
20611;SDS011;10465;42.686;23.364;2023-02-07T07:37:29;24.75;;;12.05;;
20611;SDS011;10465;42.686;23.364;2023-02-07T07:39:55;18.20;;;11.88;;
20611;SDS011;10465;42.686;23.364;2023-02-07T07:42:20;21.75;;;12.57;;
20611;SDS011;10465;42.686;23.364;2023-02-07T07:44:46;23.92;;;14.18;;
20611;SDS011;10465;42.686;23.364;2023-02-07T07:47:11;23.33;;;12.93;;
20611;SDS011;10465;42.686;23.364;2023-02-07T07:49:37;20.38;;;11.73;;
20611;SDS011;10465;42.686;23.364;2023-02-07T07:52:03;25.35;;;13.52;;
20611;SDS011;10465;42.686;23.364;2023-02-07T07:54:29;22.08;;;12.57;;
20611;SDS011;10465;42.686;23.364;2023-02-07T07:56:54;18.75;;;11.27;;
20611;SDS011;10465;42.686;23.364;2023-02-07T07:59:20;19.33;;;10.95;;
20611;SDS011;10465;42.686;23.364;2023-02-07T08:01:45;18.33;;;10.80;;
20611;SDS011;10465;42.686;23.364;2023-02-07T08:04:11;19.20;;;11.75;;
20611;SDS011;10465;42.686;23.364;2023-02-07T08:06:36;27.10;;;13.05;;
20611;SDS011;10465;42.686;23.364;2023-02-07T08:09:02;20.77;;;12.15;;
20611;SDS011;10465;42.686;23.364;2023-02-07T08:11:27;19.45;;;11.23;;
20611;SDS011;10465;42.686;23.364;2023-02-07T08:13:53;21.40;;;11.88;;
20611;SDS011;10465;42.686;23.364;2023-02-07T08:16:19;22.25;;;12.48;;
20611;SDS011;10465;42.686;23.364;2023-02-07T08:18:44;24.60;;;12.07;;
20611;SDS011;10465;42.686;23.364;2023-02-07T08:21:10;20.05;;;10.82;;
20611;SDS011;10465;42.686;23.364;2023-02-07T08:23:35;20.65;;;11.70;;
20611;SDS011;10465;42.686;23.364;2023-02-07T08:26:01;21.90;;;12.40;;
20611;SDS011;10465;42.686;23.364;2023-02-07T08:28:28;18.08;;;10.98;;
20611;SDS011;10465;42.686;23.364;2023-02-07T08:30:58;15.57;;;9.90;;
20611;SDS011;10465;42.686;23.364;2023-02-07T08:33:26;17.27;;;10.20;;
20611;SDS011;10465;42.686;23.364;2023-02-07T08:35:52;18.17;;;9.23;;
20611;SDS011;10465;42.686;23.364;2023-02-07T08:38:18;16.13;;;8.73;;
20611;SDS011;10465;42.686;23.364;2023-02-07T08:40:43;15.88;;;9.30;;
20611;SDS011;10465;42.686;23.364;2023-02-07T08:43:09;16.15;;;9.35;;
20611;SDS011;10465;42.686;23.364;2023-02-07T08:45:37;18.10;;;10.93;;
20611;SDS011;10465;42.686;23.364;2023-02-07T08:48:07;22.13;;;11.38;;
20611;SDS011;10465;42.686;23.364;2023-02-07T08:50:33;18.83;;;11.20;;
20611;SDS011;10465;42.686;23.364;2023-02-07T08:52:58;20.05;;;11.20;;
20611;SDS011;10465;42.686;23.364;2023-02-07T08:55:24;18.15;;;10.52;;
20611;SDS011;10465;42.686;23.364;2023-02-07T08:57:49;19.58;;;11.02;;
20611;SDS011;10465;42.686;23.364;2023-02-07T09:00:15;16.85;;;11.18;;
20611;SDS011;10465;42.686;23.364;2023-02-07T09:02:41;18.60;;;11.32;;
20611;SDS011;10465;42.686;23.364;2023-02-07T09:05:07;23.67;;;13.32;;
20611;SDS011;10465;42.686;23.364;2023-02-07T09:07:33;19.80;;;12.10;;
20611;SDS011;10465;42.686;23.364;2023-02-07T09:09:59;21.23;;;12.52;;
20611;SDS011;10465;42.686;23.364;2023-02-07T09:12:24;21.85;;;12.15;;
20611;SDS011;10465;42.686;23.364;2023-02-07T09:14:50;17.02;;;10.70;;
20611;SDS011;10465;42.686;23.364;2023-02-07T09:17:16;23.17;;;12.07;;
20611;SDS011;10465;42.686;23.364;2023-02-07T09:19:41;24.05;;;12.43;;
20611;SDS011;10465;42.686;23.364;2023-02-07T09:22:07;22.50;;;12.73;;
20611;SDS011;10465;42.686;23.364;2023-02-07T09:24:32;21.05;;;12.82;;
20611;SDS011;10465;42.686;23.364;2023-02-07T09:26:58;21.15;;;12.35;;
20611;SDS011;10465;42.686;23.364;2023-02-07T09:29:24;19.17;;;11.30;;
20611;SDS011;10465;42.686;23.364;2023-02-07T09:31:50;15.43;;;10.57;;
20611;SDS011;10465;42.686;23.364;2023-02-07T09:34:16;18.92;;;10.43;;
20611;SDS011;10465;42.686;23.364;2023-02-07T09:36:42;17.50;;;10.70;;
20611;SDS011;10465;42.686;23.364;2023-02-07T09:39:07;18.85;;;11.02;;
20611;SDS011;10465;42.686;23.364;2023-02-07T09:41:50;16.83;;;10.27;;
20611;SDS011;10465;42.686;23.364;2023-02-07T09:47:12;18.55;;;10.55;;
20611;SDS011;10465;42.686;23.364;2023-02-07T09:52:30;22.80;;;12.20;;
20611;SDS011;10465;42.686;23.364;2023-02-07T09:55:03;19.85;;;11.73;;
20611;SDS011;10465;42.686;23.364;2023-02-07T09:57:41;19.65;;;11.80;;
20611;SDS011;10465;42.686;23.364;2023-02-07T10:02:51;16.20;;;9.88;;
20611;SDS011;10465;42.686;23.364;2023-02-07T10:05:26;20.38;;;10.80;;
20611;SDS011;10465;42.686;23.364;2023-02-07T10:08:15;18.80;;;10.10;;
20611;SDS011;10465;42.686;23.364;2023-02-07T10:13:16;16.27;;;11.00;;
20611;SDS011;10465;42.686;23.364;2023-02-07T10:21:26;16.00;;;9.55;;
20611;SDS011;10465;42.686;23.364;2023-02-07T10:31:54;16.02;;;9.43;;
20611;SDS011;10465;42.686;23.364;2023-02-07T10:34:33;17.58;;;10.75;;
20611;SDS011;10465;42.686;23.364;2023-02-07T10:37:05;21.00;;;11.77;;
20611;SDS011;10465;42.686;23.364;2023-02-07T10:39:44;20.42;;;10.95;;
20611;SDS011;10465;42.686;23.364;2023-02-07T10:42:13;17.38;;;10.80;;
20611;SDS011;10465;42.686;23.364;2023-02-07T10:44:40;18.38;;;11.82;;
20611;SDS011;10465;42.686;23.364;2023-02-07T10:47:08;20.05;;;11.63;;
20611;SDS011;10465;42.686;23.364;2023-02-07T10:49:40;17.95;;;10.38;;
20611;SDS011;10465;42.686;23.364;2023-02-07T10:54:51;18.90;;;11.98;;
20611;SDS011;10465;42.686;23.364;2023-02-07T10:57:18;20.40;;;11.52;;
20611;SDS011;10465;42.686;23.364;2023-02-07T10:59:45;18.80;;;11.57;;
20611;SDS011;10465;42.686;23.364;2023-02-07T11:04:56;16.23;;;10.20;;
20611;SDS011;10465;42.686;23.364;2023-02-07T11:07:23;13.35;;;8.57;;
20611;SDS011;10465;42.686;23.364;2023-02-07T11:09:49;16.17;;;7.97;;
20611;SDS011;10465;42.686;23.364;2023-02-07T11:12:22;13.88;;;8.32;;
20611;SDS011;10465;42.686;23.364;2023-02-07T11:14:59;13.32;;;9.15;;
20611;SDS011;10465;42.686;23.364;2023-02-07T11:17:38;13.93;;;9.00;;
20611;SDS011;10465;42.686;23.364;2023-02-07T11:20:10;16.02;;;10.15;;
20611;SDS011;10465;42.686;23.364;2023-02-07T11:22:44;17.38;;;10.32;;
20611;SDS011;10465;42.686;23.364;2023-02-07T11:25:10;16.05;;;9.57;;
20611;SDS011;10465;42.686;23.364;2023-02-07T11:27:36;13.82;;;9.35;;
20611;SDS011;10465;42.686;23.364;2023-02-07T11:30:06;12.93;;;8.15;;
20611;SDS011;10465;42.686;23.364;2023-02-07T11:32:34;13.32;;;8.20;;
20611;SDS011;10465;42.686;23.364;2023-02-07T11:35:06;13.20;;;7.60;;
20611;SDS011;10465;42.686;23.364;2023-02-07T11:37:37;12.10;;;8.30;;
20611;SDS011;10465;42.686;23.364;2023-02-07T11:42:43;16.35;;;9.20;;
20611;SDS011;10465;42.686;23.364;2023-02-07T11:45:16;17.00;;;9.52;;
20611;SDS011;10465;42.686;23.364;2023-02-07T11:47:46;16.52;;;10.10;;
20611;SDS011;10465;42.686;23.364;2023-02-07T11:50:20;14.73;;;8.93;;
20611;SDS011;10465;42.686;23.364;2023-02-07T11:52:56;12.93;;;8.57;;
20611;SDS011;10465;42.686;23.364;2023-02-07T11:55:33;16.60;;;8.98;;
20611;SDS011;10465;42.686;23.364;2023-02-07T11:58:07;15.40;;;8.73;;
20611;SDS011;10465;42.686;23.364;2023-02-07T12:00:48;13.63;;;8.85;;
20611;SDS011;10465;42.686;23.364;2023-02-07T12:03:20;17.27;;;9.82;;
20611;SDS011;10465;42.686;23.364;2023-02-07T12:05:49;15.73;;;8.57;;
20611;SDS011;10465;42.686;23.364;2023-02-07T12:08:19;12.95;;;7.85;;
20611;SDS011;10465;42.686;23.364;2023-02-07T12:10:58;10.13;;;7.18;;
20611;SDS011;10465;42.686;23.364;2023-02-07T12:13:49;15.10;;;8.52;;
20611;SDS011;10465;42.686;23.364;2023-02-07T12:16:26;16.02;;;8.27;;
20611;SDS011;10465;42.686;23.364;2023-02-07T12:19:20;15.20;;;8.65;;
20611;SDS011;10465;42.686;23.364;2023-02-07T12:27:52;16.98;;;10.15;;
20611;SDS011;10465;42.686;23.364;2023-02-07T12:30:36;17.15;;;9.05;;
20611;SDS011;10465;42.686;23.364;2023-02-07T12:33:26;14.13;;;8.77;;
20611;SDS011;10465;42.686;23.364;2023-02-07T12:41:10;15.70;;;9.52;;
20611;SDS011;10465;42.686;23.364;2023-02-07T12:43:47;18.25;;;11.23;;
20611;SDS011;10465;42.686;23.364;2023-02-07T12:46:40;18.13;;;9.73;;
20611;SDS011;10465;42.686;23.364;2023-02-07T12:54:50;15.43;;;9.52;;
20611;SDS011;10465;42.686;23.364;2023-02-07T13:13:54;14.63;;;8.52;;
20611;SDS011;10465;42.686;23.364;2023-02-07T13:16:55;16.95;;;10.07;;
20611;SDS011;10465;42.686;23.364;2023-02-07T13:19:38;14.90;;;9.80;;
20611;SDS011;10465;42.686;23.364;2023-02-07T13:22:25;14.10;;;8.63;;
20611;SDS011;10465;42.686;23.364;2023-02-07T13:24:56;16.48;;;9.85;;
20611;SDS011;10465;42.686;23.364;2023-02-07T13:27:23;16.08;;;9.55;;
20611;SDS011;10465;42.686;23.364;2023-02-07T13:29:51;17.33;;;10.13;;
20611;SDS011;10465;42.686;23.364;2023-02-07T13:32:18;17.60;;;9.88;;
20611;SDS011;10465;42.686;23.364;2023-02-07T13:47:56;18.38;;;11.05;;
20611;SDS011;10465;42.686;23.364;2023-02-07T13:50:41;20.23;;;11.20;;
20611;SDS011;10465;42.686;23.364;2023-02-07T13:56:01;16.90;;;9.60;;
20611;SDS011;10465;42.686;23.364;2023-02-07T14:01:18;17.20;;;10.55;;
20611;SDS011;10465;42.686;23.364;2023-02-07T14:04:06;17.90;;;10.15;;
20611;SDS011;10465;42.686;23.364;2023-02-07T14:06:36;17.08;;;9.80;;
20611;SDS011;10465;42.686;23.364;2023-02-07T14:09:41;13.90;;;9.40;;
20611;SDS011;10465;42.686;23.364;2023-02-07T14:12:21;17.45;;;9.30;;
20611;SDS011;10465;42.686;23.364;2023-02-07T14:14:50;15.25;;;9.35;;
20611;SDS011;10465;42.686;23.364;2023-02-07T14:19:58;13.77;;;9.18;;
20611;SDS011;10465;42.686;23.364;2023-02-07T14:27:32;14.25;;;8.88;;
20611;SDS011;10465;42.686;23.364;2023-02-07T14:37:42;15.77;;;9.98;;
20611;SDS011;10465;42.686;23.364;2023-02-07T14:40:20;16.05;;;10.40;;
20611;SDS011;10465;42.686;23.364;2023-02-07T14:43:04;16.45;;;9.68;;
20611;SDS011;10465;42.686;23.364;2023-02-07T14:46:01;18.92;;;10.35;;
20611;SDS011;10465;42.686;23.364;2023-02-07T14:51:06;18.83;;;10.25;;
20611;SDS011;10465;42.686;23.364;2023-02-07T14:53:38;17.33;;;9.70;;
20611;SDS011;10465;42.686;23.364;2023-02-07T14:56:04;16.58;;;10.07;;
20611;SDS011;10465;42.686;23.364;2023-02-07T14:58:38;17.00;;;10.40;;
20611;SDS011;10465;42.686;23.364;2023-02-07T15:01:13;14.18;;;9.40;;
20611;SDS011;10465;42.686;23.364;2023-02-07T15:03:44;17.77;;;10.18;;
20611;SDS011;10465;42.686;23.364;2023-02-07T15:06:17;16.48;;;9.85;;
20611;SDS011;10465;42.686;23.364;2023-02-07T15:08:57;17.70;;;10.38;;
20611;SDS011;10465;42.686;23.364;2023-02-07T15:11:27;21.27;;;11.52;;
20611;SDS011;10465;42.686;23.364;2023-02-07T15:13:56;22.83;;;12.10;;
20611;SDS011;10465;42.686;23.364;2023-02-07T15:16:26;20.85;;;12.05;;
20611;SDS011;10465;42.686;23.364;2023-02-07T15:24:02;21.17;;;12.02;;
20611;SDS011;10465;42.686;23.364;2023-02-07T15:26:30;21.42;;;11.85;;
20611;SDS011;10465;42.686;23.364;2023-02-07T15:29:04;22.88;;;12.23;;
20611;SDS011;10465;42.686;23.364;2023-02-07T15:31:38;21.55;;;12.05;;
20611;SDS011;10465;42.686;23.364;2023-02-07T15:34:05;24.33;;;12.15;;
20611;SDS011;10465;42.686;23.364;2023-02-07T15:36:40;20.10;;;12.15;;
20611;SDS011;10465;42.686;23.364;2023-02-07T15:41:50;20.65;;;11.65;;
20611;SDS011;10465;42.686;23.364;2023-02-07T15:46:49;20.05;;;12.02;;
20611;SDS011;10465;42.686;23.364;2023-02-07T15:49:23;23.70;;;12.70;;
20611;SDS011;10465;42.686;23.364;2023-02-07T15:54:54;25.33;;;14.15;;
20611;SDS011;10465;42.686;23.364;2023-02-07T15:59:59;23.92;;;14.25;;
20611;SDS011;10465;42.686;23.364;2023-02-07T16:02:28;26.55;;;15.35;;
20611;SDS011;10465;42.686;23.364;2023-02-07T16:04:56;23.65;;;14.25;;
20611;SDS011;10465;42.686;23.364;2023-02-07T16:07:35;25.35;;;13.52;;
20611;SDS011;10465;42.686;23.364;2023-02-07T16:10:26;24.92;;;14.38;;
20611;SDS011;10465;42.686;23.364;2023-02-07T16:13:00;25.83;;;14.13;;
20611;SDS011;10465;42.686;23.364;2023-02-07T16:15:49;22.30;;;13.45;;
20611;SDS011;10465;42.686;23.364;2023-02-07T16:18:42;24.40;;;13.48;;
20611;SDS011;10465;42.686;23.364;2023-02-07T16:21:20;26.92;;;15.02;;
20611;SDS011;10465;42.686;23.364;2023-02-07T16:23:50;28.05;;;15.63;;
20611;SDS011;10465;42.686;23.364;2023-02-07T16:26:18;29.05;;;14.23;;
20611;SDS011;10465;42.686;23.364;2023-02-07T16:28:48;25.00;;;14.98;;
20611;SDS011;10465;42.686;23.364;2023-02-07T16:31:13;31.25;;;15.60;;
20611;SDS011;10465;42.686;23.364;2023-02-07T16:33:39;28.73;;;15.93;;
20611;SDS011;10465;42.686;23.364;2023-02-07T16:36:05;29.00;;;15.93;;
20611;SDS011;10465;42.686;23.364;2023-02-07T16:38:38;26.23;;;15.75;;
20611;SDS011;10465;42.686;23.364;2023-02-07T16:41:03;47.10;;;24.85;;
20611;SDS011;10465;42.686;23.364;2023-02-07T16:46:02;29.08;;;15.52;;
20611;SDS011;10465;42.686;23.364;2023-02-07T16:48:28;28.63;;;15.00;;
20611;SDS011;10465;42.686;23.364;2023-02-07T16:50:53;27.50;;;16.65;;
20611;SDS011;10465;42.686;23.364;2023-02-07T16:53:19;31.45;;;17.52;;
20611;SDS011;10465;42.686;23.364;2023-02-07T16:55:44;30.83;;;17.20;;
20611;SDS011;10465;42.686;23.364;2023-02-07T16:58:14;29.67;;;16.48;;
20611;SDS011;10465;42.686;23.364;2023-02-07T17:00:48;30.30;;;16.67;;
20611;SDS011;10465;42.686;23.364;2023-02-07T17:03:13;29.45;;;16.55;;
20611;SDS011;10465;42.686;23.364;2023-02-07T17:05:39;33.97;;;17.77;;
20611;SDS011;10465;42.686;23.364;2023-02-07T17:08:05;32.05;;;17.52;;
20611;SDS011;10465;42.686;23.364;2023-02-07T17:10:31;33.28;;;16.35;;
20611;SDS011;10465;42.686;23.364;2023-02-07T17:12:58;31.30;;;17.40;;
20611;SDS011;10465;42.686;23.364;2023-02-07T17:15:23;35.03;;;17.98;;
20611;SDS011;10465;42.686;23.364;2023-02-07T17:17:49;31.52;;;17.70;;